Collinsville, Alabama
Current Conditions -  °F | °C
As of 2:35 AM on Monday 24 Nov 2014 (Local Time) from K4A9 Reporting Station
Overcast Overcast  
Wind Chill: 61°   Ceiling: 2100
Heat Index: 61°   Visibility: 10mi
Dew Point: 54°   Wind: 13mph
Humidity: 77%   Direction: 210°SSW
Pressure: 29.67"   Gusts: 20mph
Location:  34.26°N, 85.86°W
Report Text: K4A9 240835Z AUTO 21011G17KT 10SM BKN021 BKN026 OVC038 16/12 A2967 RMK AO2
Loading
Personal Weather Stations






























Interactive Weather Map New forecast layout! Learn more

10-Day Weather Forecast

Advertisements
Track Severe Weather on mobile